createdAt,value
2023-04-15T00:02:18.461Z,3.83
2023-04-15T00:04:47.077Z,3.78
2023-04-15T00:07:16.350Z,3.63
2023-04-15T00:09:46.175Z,3.70
2023-04-15T00:12:14.373Z,3.95
2023-04-15T00:14:45.097Z,4.00
2023-04-15T00:17:13.307Z,3.70
2023-04-15T00:19:41.907Z,3.70
2023-04-15T00:22:09.893Z,3.85
2023-04-15T00:24:38.096Z,4.20
2023-04-15T00:27:07.786Z,3.90
2023-04-15T00:29:36.183Z,4.05
2023-04-15T00:32:04.430Z,4.15
2023-04-15T00:34:32.701Z,4.22
2023-04-15T00:37:00.805Z,4.35
2023-04-15T00:39:32.050Z,4.30
2023-04-15T00:42:00.123Z,4.20
2023-04-15T00:44:29.624Z,4.35
2023-04-15T00:46:59.467Z,4.38
2023-04-15T00:49:28.987Z,4.78
2023-04-15T00:51:57.325Z,4.50
2023-04-15T00:54:25.618Z,5.32
2023-04-15T00:56:53.726Z,4.55
2023-04-15T00:59:22.853Z,4.25
2023-04-15T01:01:52.987Z,4.43
2023-04-15T01:04:21.724Z,4.40
2023-04-15T01:06:50.016Z,4.70
2023-04-15T01:09:18.183Z,4.93
2023-04-15T01:11:46.507Z,4.55
2023-04-15T01:14:15.419Z,4.88
2023-04-15T01:16:45.416Z,4.55
2023-04-15T01:19:18.050Z,5.22
2023-04-15T01:21:47.070Z,5.07
2023-04-15T01:24:19.496Z,5.05
2023-04-15T01:26:52.718Z,4.93
2023-04-15T01:29:20.868Z,5.13
2023-04-15T01:31:53.800Z,5.00
2023-04-15T01:34:22.428Z,5.35
2023-04-15T01:36:50.680Z,5.45
2023-04-15T01:39:19.373Z,5.25
2023-04-15T01:41:49.207Z,5.47
2023-04-15T01:44:17.813Z,5.60
2023-04-15T01:46:45.941Z,5.13
2023-04-15T01:49:14.128Z,5.65
2023-04-15T01:51:44.612Z,5.70
2023-04-15T01:54:12.822Z,5.57
2023-04-15T01:56:41.079Z,5.68
2023-04-15T01:59:10.910Z,5.78
2023-04-15T02:01:39.086Z,5.45
2023-04-15T02:04:08.289Z,5.65
2023-04-15T02:06:36.556Z,5.80
2023-04-15T02:09:04.967Z,6.03
2023-04-15T02:11:33.173Z,6.50
2023-04-15T02:14:01.380Z,6.30
2023-04-15T02:16:33.566Z,5.60
2023-04-15T02:19:02.277Z,6.18
2023-04-15T02:21:30.889Z,5.90
2023-04-15T02:24:02.338Z,5.93
2023-04-15T02:26:32.754Z,6.25
2023-04-15T02:29:01.307Z,5.35
2023-04-15T02:31:34.101Z,5.78
2023-04-15T02:34:04.442Z,6.07
2023-04-15T02:36:33.153Z,5.63
2023-04-15T02:39:01.581Z,5.70
2023-04-15T02:41:30.940Z,5.15
2023-04-15T02:43:58.975Z,5.90
2023-04-15T02:46:27.561Z,5.68
2023-04-15T02:48:57.361Z,5.75
2023-04-15T02:51:27.114Z,5.75
2023-04-15T02:53:55.396Z,5.57
2023-04-15T02:56:23.725Z,5.30
2023-04-15T02:58:56.446Z,6.32
2023-04-15T03:01:24.593Z,6.00
2023-04-15T03:03:52.915Z,5.97
2023-04-15T03:06:22.456Z,6.07
2023-04-15T03:08:50.529Z,6.50
2023-04-15T03:11:18.851Z,6.63
2023-04-15T03:13:47.453Z,6.40
2023-04-15T03:16:16.348Z,6.50
2023-04-15T03:18:44.577Z,6.30
2023-04-15T03:21:14.085Z,6.32
2023-04-15T03:23:44.366Z,7.00
2023-04-15T03:26:24.689Z,6.65
2023-04-15T03:28:53.249Z,6.65
2023-04-15T03:31:21.802Z,6.57
2023-04-15T03:33:52.691Z,6.57
2023-04-15T03:36:20.921Z,7.07
2023-04-15T03:38:50.586Z,6.32
2023-04-15T03:41:18.941Z,6.30
2023-04-15T03:43:47.049Z,6.85
2023-04-15T03:46:15.223Z,6.75
2023-04-15T03:48:43.337Z,7.70
2023-04-15T03:51:11.748Z,7.00
2023-04-15T03:53:39.892Z,7.00
2023-04-15T03:56:09.400Z,6.87
2023-04-15T03:58:37.529Z,7.00
2023-04-15T04:01:06.210Z,7.67
2023-04-15T04:03:34.653Z,6.97
2023-04-15T04:06:03.774Z,6.77
2023-04-15T04:08:31.898Z,7.13
2023-04-15T04:10:59.928Z,7.43
2023-04-15T04:13:29.370Z,8.20
2023-04-15T04:15:58.013Z,8.00
2023-04-15T04:18:26.155Z,10.43
2023-04-15T04:20:54.311Z,10.13
2023-04-15T04:23:22.522Z,11.37
2023-04-15T04:25:51.079Z,10.60
2023-04-15T04:28:19.241Z,15.13
2023-04-15T04:30:49.054Z,18.67
2023-04-15T04:33:17.160Z,20.20
2023-04-15T04:35:45.394Z,23.20
2023-04-15T04:38:13.537Z,24.37
2023-04-15T04:40:42.313Z,28.80
2023-04-15T04:43:10.660Z,30.57
2023-04-15T04:45:39.246Z,31.40
2023-04-15T04:48:10.535Z,35.33
2023-04-15T04:50:38.680Z,37.30
2023-04-15T04:53:06.694Z,38.33
2023-04-15T04:55:36.980Z,36.67
2023-04-15T04:58:05.129Z,36.43
2023-04-15T05:00:33.722Z,36.20
2023-04-15T05:03:01.928Z,34.30
2023-04-15T05:05:31.720Z,34.47
2023-04-15T05:08:01.531Z,35.63
2023-04-15T05:10:32.365Z,37.57
2023-04-15T05:13:00.447Z,36.47
2023-04-15T05:15:28.878Z,37.80
2023-04-15T05:17:57.013Z,36.80
2023-04-15T05:20:26.712Z,37.60
2023-04-15T05:22:56.731Z,37.90
2023-04-15T05:25:25.478Z,39.87
2023-04-15T05:27:53.611Z,39.63
2023-04-15T05:30:23.544Z,40.53
2023-04-15T05:32:51.909Z,40.30
2023-04-15T05:35:20.221Z,42.43
2023-04-15T05:37:48.458Z,41.47
2023-04-15T05:40:18.891Z,40.93
2023-04-15T05:42:47.001Z,40.63
2023-04-15T05:45:15.148Z,40.53
2023-04-15T05:47:48.858Z,39.77
2023-04-15T05:50:17.221Z,39.57
2023-04-15T05:52:45.986Z,39.87
2023-04-15T05:55:14.607Z,39.20
2023-04-15T05:57:44.222Z,39.77
2023-04-15T06:00:15.636Z,40.83
2023-04-15T06:02:44.063Z,39.93
2023-04-15T06:05:12.635Z,41.10
2023-04-15T06:07:40.901Z,41.27
2023-04-15T06:10:10.215Z,42.70
2023-04-15T06:12:38.427Z,40.80
2023-04-15T06:15:10.506Z,42.57
2023-04-15T06:17:38.618Z,40.20
2023-04-15T06:20:08.646Z,41.10
2023-04-15T06:22:39.157Z,39.33
2023-04-15T06:25:12.414Z,37.88
2023-04-15T06:27:40.655Z,38.77
2023-04-15T06:30:12.413Z,39.20
2023-04-15T06:32:40.664Z,40.17
2023-04-15T06:35:09.479Z,39.83
2023-04-15T06:37:37.760Z,37.95
2023-04-15T06:40:07.539Z,35.90
2023-04-15T06:42:36.818Z,39.13
2023-04-15T06:45:06.858Z,39.20
2023-04-15T06:47:36.982Z,41.22
2023-04-15T06:50:05.844Z,39.50
2023-04-15T06:52:37.752Z,39.80
2023-04-15T06:55:07.123Z,37.30
2023-04-15T06:57:35.704Z,36.92
2023-04-15T07:00:05.902Z,35.35
2023-04-15T07:02:35.741Z,36.45
2023-04-15T07:05:05.033Z,38.78
2023-04-15T07:07:33.222Z,37.05
2023-04-15T07:10:02.280Z,38.63
2023-04-15T07:12:30.640Z,38.65
2023-04-15T07:14:58.821Z,36.50
2023-04-15T07:17:28.962Z,37.08
2023-04-15T07:20:01.090Z,34.80
2023-04-15T07:22:29.174Z,34.83
2023-04-15T07:24:59.180Z,33.13
2023-04-15T07:27:30.157Z,28.55
2023-04-15T07:30:01.499Z,25.90
2023-04-15T07:32:29.851Z,22.00
2023-04-15T07:35:11.842Z,14.77
2023-04-15T07:37:45.547Z,15.15
2023-04-15T07:40:14.761Z,13.13
2023-04-15T07:42:55.801Z,11.63
2023-04-15T07:45:26.523Z,10.88
2023-04-15T07:47:56.452Z,9.60
2023-04-15T07:50:26.225Z,9.15
2023-04-15T07:52:54.933Z,8.98
2023-04-15T07:55:23.133Z,10.48
2023-04-15T07:57:52.714Z,10.35
2023-04-15T08:00:21.092Z,9.85
2023-04-15T08:02:50.055Z,10.93
2023-04-15T08:05:18.404Z,9.45
2023-04-15T08:07:48.601Z,9.10
2023-04-15T08:10:16.769Z,9.32
2023-04-15T08:12:49.175Z,9.40
2023-04-15T08:15:17.763Z,9.93
2023-04-15T08:17:45.981Z,8.73
2023-04-15T08:20:14.504Z,7.53
2023-04-15T08:22:51.986Z,7.55
2023-04-15T08:25:23.338Z,7.25
2023-04-15T08:27:51.567Z,7.70
2023-04-15T08:30:20.379Z,7.95
2023-04-15T08:32:52.411Z,7.25
2023-04-15T08:35:20.713Z,7.45
2023-04-15T08:37:50.210Z,6.45
2023-04-15T08:40:18.401Z,5.88
2023-04-15T08:42:50.914Z,5.95
2023-04-15T08:45:20.301Z,6.85
2023-04-15T08:47:59.305Z,5.55
2023-04-15T08:50:30.648Z,6.18
2023-04-15T08:53:00.506Z,6.00
2023-04-15T08:55:31.633Z,5.93
2023-04-15T08:57:59.721Z,6.78
2023-04-15T09:00:29.230Z,6.15
2023-04-15T09:02:58.161Z,6.30
2023-04-15T09:05:26.689Z,7.00
2023-04-15T09:07:54.903Z,6.13
2023-04-15T09:10:26.357Z,6.55
2023-04-15T09:12:54.424Z,6.28
2023-04-15T09:15:23.777Z,5.90
2023-04-15T09:17:52.233Z,5.40
2023-04-15T09:20:20.520Z,6.10
2023-04-15T09:22:50.772Z,5.40
2023-04-15T09:25:32.137Z,5.38
2023-04-15T09:28:05.151Z,5.28
2023-04-15T09:30:33.120Z,5.53
2023-04-15T09:33:05.091Z,5.35
2023-04-15T09:35:33.308Z,4.88
2023-04-15T09:38:08.552Z,5.10
2023-04-15T09:40:40.342Z,3.75
2023-04-15T09:43:09.461Z,4.13
2023-04-15T09:45:38.270Z,4.43
2023-04-15T09:48:18.284Z,4.10
2023-04-15T09:50:53.780Z,3.50
2023-04-15T09:53:24.851Z,2.97
2023-04-15T09:55:56.905Z,2.72
2023-04-15T09:58:26.489Z,3.03
2023-04-15T10:00:56.874Z,3.03
2023-04-15T10:03:26.655Z,2.55
2023-04-15T10:05:56.917Z,2.30
2023-04-15T10:08:26.409Z,2.50
2023-04-15T10:10:56.689Z,2.85
2023-04-15T10:13:36.261Z,2.40
2023-04-15T10:16:08.717Z,3.17
2023-04-15T10:18:39.228Z,2.97
2023-04-15T10:21:08.170Z,2.50
2023-04-15T10:23:36.846Z,2.83
2023-04-15T10:26:07.095Z,2.90
2023-04-15T10:28:35.905Z,2.90
2023-04-15T10:31:06.000Z,3.10
2023-04-15T10:33:34.799Z,2.63
2023-04-15T10:36:03.848Z,3.00
2023-04-15T10:38:37.323Z,2.83
2023-04-15T10:41:21.555Z,2.30
2023-04-15T10:43:55.019Z,2.75
2023-04-15T10:46:25.700Z,2.80
2023-04-15T10:48:55.536Z,2.85
2023-04-15T10:51:33.279Z,2.40
2023-04-15T10:54:02.146Z,2.78
2023-04-15T10:56:43.179Z,2.95
2023-04-15T10:59:11.334Z,3.40
2023-04-15T11:01:52.922Z,3.00
2023-04-15T11:04:52.738Z,3.05
2023-04-15T11:07:41.381Z,3.45
2023-04-15T11:10:51.315Z,3.50
2023-04-15T11:13:23.726Z,3.38
2023-04-15T11:15:52.028Z,3.15
2023-04-15T11:18:22.223Z,2.67
2023-04-15T11:20:56.572Z,3.25
2023-04-15T11:23:30.600Z,3.13
2023-04-15T11:26:00.583Z,3.92
2023-04-15T11:28:31.017Z,2.90
2023-04-15T11:30:59.978Z,3.00
2023-04-15T11:33:27.914Z,3.10
2023-04-15T11:35:58.503Z,3.47
2023-04-15T11:38:26.444Z,3.80
2023-04-15T11:40:54.686Z,2.90
2023-04-15T11:43:25.141Z,2.45
2023-04-15T11:45:57.905Z,2.55
2023-04-15T11:48:27.918Z,2.70
2023-04-15T11:50:58.137Z,2.92
2023-04-15T11:53:37.146Z,3.08
2023-04-15T11:56:05.854Z,3.22
2023-04-15T11:58:36.497Z,2.63
2023-04-15T12:01:07.403Z,2.80
2023-04-15T12:03:40.565Z,2.88
2023-04-15T12:06:19.129Z,2.85
2023-04-15T12:09:01.860Z,2.78
2023-04-15T12:11:35.290Z,3.05
2023-04-15T12:14:11.185Z,3.38
2023-04-15T12:16:49.104Z,3.40
2023-04-15T12:19:24.492Z,3.20
2023-04-15T12:21:53.645Z,3.63
2023-04-15T12:24:23.962Z,3.38
2023-04-15T12:26:56.170Z,3.85
2023-04-15T12:29:27.871Z,3.30
2023-04-15T12:31:58.493Z,3.30
2023-04-15T12:34:33.664Z,3.17
2023-04-15T12:37:14.463Z,3.47
2023-04-15T12:39:44.977Z,2.85
2023-04-15T12:42:13.805Z,3.70
2023-04-15T12:44:41.856Z,3.40
2023-04-15T12:47:12.678Z,3.63
2023-04-15T12:49:41.396Z,3.20
2023-04-15T12:52:09.720Z,4.05
2023-04-15T12:54:38.123Z,3.60
2023-04-15T12:57:09.044Z,3.83
2023-04-15T12:59:37.659Z,3.50
2023-04-15T13:02:06.380Z,3.45
2023-04-15T13:04:36.115Z,3.50
2023-04-15T13:07:13.844Z,3.08
2023-04-15T13:09:50.922Z,2.80
2023-04-15T13:12:19.359Z,3.30
2023-04-15T13:14:55.675Z,3.28
2023-04-15T13:17:27.794Z,2.88
2023-04-15T13:19:58.365Z,3.30
2023-04-15T13:22:27.242Z,3.15
2023-04-15T13:24:58.766Z,2.65
2023-04-15T13:27:28.325Z,2.90
2023-04-15T13:29:57.753Z,2.97
2023-04-15T13:32:26.248Z,3.45
2023-04-15T13:35:04.569Z,4.65
2023-04-15T13:37:32.866Z,3.28
2023-04-15T13:40:04.021Z,5.78
2023-04-15T13:42:32.235Z,3.00
2023-04-15T13:45:17.249Z,4.32
2023-04-15T13:47:45.697Z,2.70
2023-04-15T13:50:16.254Z,2.95
2023-04-15T13:52:44.590Z,3.20
2023-04-15T13:55:18.713Z,2.80
2023-04-15T13:57:48.262Z,3.00
2023-04-15T14:00:17.471Z,3.03
2023-04-15T14:02:46.076Z,3.20
2023-04-15T14:05:16.377Z,3.47
2023-04-15T14:07:44.880Z,2.75
2023-04-15T14:10:13.205Z,2.95
2023-04-15T14:12:43.005Z,3.20
2023-04-15T14:15:11.860Z,3.10
2023-04-15T14:17:42.519Z,3.03
2023-04-15T14:20:11.617Z,3.58
2023-04-15T14:22:42.677Z,3.33
2023-04-15T14:25:17.194Z,3.13
2023-04-15T14:27:45.712Z,3.42
2023-04-15T14:30:14.592Z,3.10
2023-04-15T14:32:43.093Z,2.60
2023-04-15T14:35:11.176Z,3.05
2023-04-15T14:37:45.370Z,3.05
2023-04-15T14:40:13.681Z,3.10
2023-04-15T14:42:48.692Z,2.97
2023-04-15T14:45:17.680Z,3.05
2023-04-15T14:47:46.119Z,2.88
2023-04-15T14:50:14.587Z,3.30
2023-04-15T14:52:44.126Z,3.65
2023-04-15T14:55:13.486Z,3.50
2023-04-15T14:57:42.777Z,3.15
2023-04-15T15:00:15.851Z,3.97
2023-04-15T15:02:44.830Z,3.55
2023-04-15T15:05:13.164Z,3.92
2023-04-15T15:07:45.701Z,3.50
2023-04-15T15:10:13.762Z,3.42
2023-04-15T15:12:42.041Z,3.83
2023-04-15T15:15:24.945Z,3.10
2023-04-15T15:17:57.192Z,3.05
2023-04-15T15:20:28.885Z,2.90
2023-04-15T15:22:58.638Z,3.00
2023-04-15T15:25:26.805Z,3.13
2023-04-15T15:27:55.198Z,3.45
2023-04-15T15:30:23.675Z,3.63
2023-04-15T15:32:51.860Z,2.85
2023-04-15T15:35:20.142Z,2.72
2023-04-15T15:37:48.583Z,3.25
2023-04-15T15:40:18.114Z,3.05
2023-04-15T15:42:47.251Z,3.08
2023-04-15T15:45:15.490Z,3.33
2023-04-15T15:47:44.179Z,2.90
2023-04-15T15:50:14.234Z,2.90
2023-04-15T15:52:42.717Z,3.00
2023-04-15T15:55:11.306Z,3.00
2023-04-15T15:57:40.956Z,4.07
2023-04-15T16:00:12.942Z,3.40
2023-04-15T16:05:13.216Z,2.90
2023-04-15T16:07:42.976Z,3.50
2023-04-15T16:10:13.805Z,2.90
2023-04-15T16:12:43.428Z,3.83
2023-04-15T16:15:13.826Z,3.60
2023-04-15T16:17:45.191Z,3.30
2023-04-15T16:20:13.314Z,2.80
2023-04-15T16:22:42.341Z,2.60
2023-04-15T16:25:10.976Z,3.95
2023-04-15T16:30:13.879Z,3.05
2023-04-15T16:32:42.065Z,3.97
2023-04-15T16:35:14.461Z,2.70
2023-04-15T16:37:45.434Z,2.70
2023-04-15T16:40:14.404Z,3.00
2023-04-15T16:42:43.820Z,2.78
2023-04-15T16:45:13.564Z,2.90
2023-04-15T16:47:44.060Z,2.60
2023-04-15T16:50:12.788Z,2.40
2023-04-15T16:52:41.108Z,2.58
2023-04-15T16:55:09.737Z,3.05
2023-04-15T16:58:02.772Z,2.70
2023-04-15T17:00:36.832Z,2.70
2023-04-15T17:03:13.792Z,2.63
2023-04-15T17:05:47.046Z,3.05
2023-04-15T17:08:18.369Z,3.90
2023-04-15T17:10:49.152Z,2.65
2023-04-15T17:13:22.538Z,2.42
2023-04-15T17:16:02.038Z,2.63
2023-04-15T17:18:30.493Z,3.15
2023-04-15T17:20:58.694Z,2.63
2023-04-15T17:23:28.203Z,2.40
2023-04-15T17:25:58.482Z,2.10
2023-04-15T17:28:28.047Z,2.00
2023-04-15T17:30:59.028Z,2.15
2023-04-15T17:34:01.211Z,2.40
2023-04-15T17:36:32.981Z,2.35
2023-04-15T17:39:06.698Z,2.53
2023-04-15T17:41:35.147Z,2.00
2023-04-15T17:44:04.135Z,2.20
2023-04-15T17:46:34.133Z,2.03
2023-04-15T17:49:03.423Z,2.08
2023-04-15T17:51:35.282Z,2.60
2023-04-15T17:54:04.075Z,2.25
2023-04-15T17:56:32.707Z,2.28
2023-04-15T17:59:02.529Z,2.67
2023-04-15T18:01:31.092Z,4.38
2023-04-15T18:04:00.938Z,3.42
2023-04-15T18:06:29.268Z,5.63
2023-04-15T18:08:58.304Z,9.10
2023-04-15T18:11:26.642Z,8.93
2023-04-15T18:13:55.339Z,6.85
2023-04-15T18:16:23.879Z,8.30
2023-04-15T18:18:52.511Z,8.75
2023-04-15T18:21:25.189Z,10.88
2023-04-15T18:23:55.771Z,12.43
2023-04-15T18:26:23.889Z,12.45
2023-04-15T18:28:52.133Z,13.38
2023-04-15T18:31:20.885Z,16.90
2023-04-15T18:33:50.763Z,19.98
2023-04-15T18:36:23.151Z,24.10
2023-04-15T18:38:52.691Z,28.33
2023-04-15T18:41:26.646Z,30.15
2023-04-15T18:43:58.827Z,32.35
2023-04-15T18:46:28.363Z,34.35
2023-04-15T18:48:56.981Z,35.60
2023-04-15T18:51:26.069Z,34.92
2023-04-15T18:53:55.789Z,34.45
2023-04-15T18:56:23.999Z,37.45
2023-04-15T18:59:11.594Z,38.33
2023-04-15T19:01:43.131Z,37.70
2023-04-15T19:04:11.714Z,37.20
2023-04-15T19:06:39.906Z,36.15
2023-04-15T19:09:10.204Z,36.25
2023-04-15T19:11:38.655Z,37.90
2023-04-15T19:14:08.142Z,36.35
2023-04-15T19:16:36.439Z,36.45
2023-04-15T19:19:06.832Z,35.50
2023-04-15T19:21:35.453Z,38.03
2023-04-15T19:24:03.852Z,37.20
2023-04-15T19:26:36.092Z,38.80
2023-04-15T19:29:04.548Z,38.20
2023-04-15T19:31:33.256Z,38.47
2023-04-15T19:34:01.581Z,38.87
2023-04-15T19:36:29.737Z,38.73
2023-04-15T19:38:58.178Z,38.50
2023-04-15T19:41:26.499Z,38.80
2023-04-15T19:43:56.620Z,37.67
2023-04-15T19:46:28.024Z,37.95
2023-04-15T19:48:56.942Z,38.20
2023-04-15T19:51:29.498Z,37.30
2023-04-15T19:53:59.710Z,38.03
2023-04-15T19:56:27.854Z,38.05
2023-04-15T19:59:00.116Z,38.13
2023-04-15T20:01:29.107Z,38.17
2023-04-15T20:03:57.380Z,37.80
2023-04-15T20:06:27.453Z,37.60
2023-04-15T20:08:55.824Z,37.03
2023-04-15T20:12:46.059Z,37.90
2023-04-15T20:14:18.940Z,36.30
2023-04-15T20:16:47.821Z,38.07
2023-04-15T20:19:18.024Z,37.73
2023-04-15T20:21:46.397Z,39.95
2023-04-15T20:24:16.705Z,37.43
2023-04-15T20:26:45.144Z,38.73
2023-04-15T20:29:13.671Z,38.53
2023-04-15T20:31:43.681Z,37.42
2023-04-15T20:34:14.367Z,36.75
2023-04-15T20:36:44.853Z,37.90
2023-04-15T20:39:13.106Z,37.60
2023-04-15T20:41:41.395Z,37.35
2023-04-15T20:44:10.900Z,37.67
2023-04-15T20:46:39.088Z,37.63
2023-04-15T20:49:08.956Z,37.85
2023-04-15T20:51:37.991Z,37.80
2023-04-15T20:54:06.279Z,37.58
2023-04-15T20:56:34.700Z,36.60
2023-04-15T20:59:03.059Z,36.67
2023-04-15T21:01:31.555Z,36.97
2023-04-15T21:04:01.598Z,37.13
2023-04-15T21:06:31.239Z,36.58
2023-04-15T21:08:59.267Z,37.78
2023-04-15T21:11:46.454Z,37.20
2023-04-15T21:14:15.618Z,38.45
2023-04-15T21:16:44.508Z,37.97
2023-04-15T21:19:12.781Z,37.45
2023-04-15T21:21:45.093Z,37.55
2023-04-15T21:24:13.269Z,37.08
2023-04-15T21:26:41.526Z,37.33
2023-04-15T21:29:11.905Z,37.08
2023-04-15T21:31:41.449Z,37.22
2023-04-15T21:34:10.031Z,37.05
2023-04-15T21:36:38.546Z,36.75
2023-04-15T21:39:08.369Z,36.30
2023-04-15T21:41:40.503Z,36.37
2023-04-15T21:44:08.509Z,36.92
2023-04-15T21:46:36.596Z,36.95
2023-04-15T21:49:06.869Z,36.92
2023-04-15T21:51:37.749Z,36.03
2023-04-15T21:54:07.558Z,36.38
2023-04-15T21:56:36.897Z,36.58
2023-04-15T21:59:05.275Z,36.45
2023-04-15T22:01:33.595Z,36.40
2023-04-15T22:04:02.026Z,35.97
2023-04-15T22:06:31.882Z,35.63
2023-04-15T22:09:02.442Z,36.20
2023-04-15T22:11:32.538Z,36.80
2023-04-15T22:14:02.011Z,37.28
2023-04-15T22:16:30.220Z,38.15
2023-04-15T22:18:58.194Z,37.33
2023-04-15T22:21:26.758Z,37.97
2023-04-15T22:24:32.091Z,38.75
2023-04-15T22:26:44.965Z,38.65
2023-04-15T22:29:16.112Z,38.90
2023-04-15T22:31:44.477Z,39.40
2023-04-15T22:34:14.886Z,39.35
2023-04-15T22:36:43.094Z,39.83
2023-04-15T22:39:11.213Z,40.22
2023-04-15T22:41:43.163Z,39.70
2023-04-15T22:44:13.196Z,39.33
2023-04-15T22:46:44.485Z,40.63
2023-04-15T22:49:12.616Z,40.40
2023-04-15T22:51:42.500Z,40.22
2023-04-15T22:54:10.961Z,40.83
2023-04-15T22:56:39.305Z,39.15
2023-04-15T22:59:08.665Z,39.42
2023-04-15T23:01:39.079Z,39.38
2023-04-15T23:04:22.858Z,40.40
2023-04-15T23:06:54.101Z,39.42
2023-04-15T23:09:22.576Z,39.08
2023-04-15T23:11:53.849Z,38.88
2023-04-15T23:14:21.949Z,39.38
2023-04-15T23:16:51.528Z,39.97
2023-04-15T23:19:19.550Z,39.42
2023-04-15T23:21:47.887Z,40.03
2023-04-15T23:24:15.979Z,41.17
2023-04-15T23:26:44.331Z,39.88
2023-04-15T23:29:12.405Z,40.00
2023-04-15T23:31:41.731Z,39.30
2023-04-15T23:34:11.423Z,39.65
2023-04-15T23:36:43.093Z,40.83
2023-04-15T23:39:11.405Z,40.08
2023-04-15T23:41:39.781Z,39.85
2023-04-15T23:44:08.299Z,41.22
2023-04-15T23:46:38.117Z,41.03
2023-04-15T23:49:06.227Z,40.38
2023-04-15T23:51:35.777Z,39.72
2023-04-15T23:54:04.169Z,39.85
2023-04-15T23:56:32.580Z,38.85
2023-04-15T23:59:00.770Z,38.05
